Airfield :
LOGIN :

Register | Disclaimer

   EN    FR    IT 

 










Legend :    VFR   Marginal VFR   IFR   Intensive IFR   Very Intensive IFR
Visi :
Ceiling :
>= 8 km
>= 3000ft
5 to 8 km
1000 to 3000 ft
1500m to 5 km
500 to 1000 ft
800 to 1500m
200 to 500 ft
< 800m
< 200 ft
Symbols :   Thunderstorms  Fog  Heavy snow  Heavy precipitations  Wind > 20 kt
SIGMETs :     Misc.  Thunderstorms  Icing  Turbulence  Mountain Waves  Volcanic Ashes







- Airport Elevation : 348 ft
- IATA code : STN
- Download approach charts


EGSS - London Stansted

CURRENT METAR :
  • 142020Z AUTO 22009KT 9999 NCD 01/M00 Q0988

EXPIRED METARs :
  • 141950Z AUTO 22009KT 9999 NCD 01/M00 Q0988
  • 141920Z AUTO 23010KT 9999 NCD 01/00 Q0987
  • 141850Z AUTO 22009KT 9999 NCD 01/M00 Q0987
  • 141820Z AUTO 22008KT 9999 NCD 01/M00 Q0987
  • 141750Z AUTO 22008KT 9999 NCD 01/M00 Q0987

TAF TAF EGSS
Valid from the 14 at 18:00 until the 16 at 00:00 UTC


141702Z 1418/1524 22009KT 9999 SCT030
TEMPO 1420/1511 7000 SHRA BKN008
PROB30
TEMPO 1500/1511 3000 SHRASN BKN004
BECMG 1507/1510 34010KT
TEMPO 1511/1515 7000 SHRA BKN014
PROB30
TEMPO 1511/1521 35015G25KT
PROB30
TEMPO 1515/1521 7000 SHRA BKN014
ATIS : +44 1279 669 325
No reported NOTAMs for that airfield.
1 SIGMET reported for the London FIR (EGTT) :
 
Severe turbulence
EGTT SIGMET 05 VALID 141900/142300 EGRR
EGTT LONDON FIR SEV TURB FCST SW OF LINE N5000 W00149 - N5152 W00623 SFC/FL060 STNR WKN=



MET'MAP, your aeronautical weather chart ! - Copyright ORBIFLY December 2007 - Disclaimer

ORBIFLY MET'MAP TEAM :

Programming & Development : Alexandra Zaïnal
Concept & Development : Baudouin d'Aumeries
Co-Development & Prog : Marc-Olivier Méhu
Technical & hardware support : Manuel Goepfert

Contact : metmap@orbifly.com




SOURCES & CREDITS :

   NOAA